Time;durP1;ratioP1;P1;durP2;ratioP2;P2;SDS_P1;SDS_P2;PMS_P1;PMS_P2;Temp;Humidity;BMP_temperature;BMP_pressure;BME280_temperature;BME280_humidity;BME280_pressure;Samples;Min_cycle;Max_cycle;Signal;HPM_P1;HPM_P2
2022/05/06 00:02:34;;;;;;;6.00;5.50;;;11.60;99.90;;;;;;6278060;28;20241;-53
2022/05/06 00:05:38;;;;;;;6.67;6.30;;;11.50;99.90;;;;;;6272747;28;20324;-54
2022/05/06 00:08:41;;;;;;;6.90;6.27;;;11.50;99.90;;;;;;6280480;28;20353;-53
2022/05/06 00:11:44;;;;;;;5.70;5.23;;;11.50;99.90;;;;;;6272061;28;20755;-55
2022/05/06 00:14:47;;;;;;;5.10;4.90;;;11.50;99.90;;;;;;6282224;28;20316;-54
2022/05/06 00:17:56;;;;;;;6.60;6.20;;;11.40;99.90;;;;;;6282086;28;20754;-53
2022/05/06 00:21:00;;;;;;;6.90;6.40;;;11.40;99.90;;;;;;6278530;28;20329;-53
2022/05/06 00:24:03;;;;;;;7.50;6.10;;;11.40;99.90;;;;;;6258351;28;20236;-53
2022/05/06 00:27:08;;;;;;;5.90;5.50;;;11.30;99.90;;;;;;6254358;28;20320;-53
2022/05/06 00:30:11;;;;;;;5.80;5.50;;;11.30;99.90;;;;;;6257429;28;20238;-55
2022/05/06 00:33:15;;;;;;;5.57;5.37;;;11.20;99.90;;;;;;6274436;28;20348;-54
2022/05/06 00:36:19;;;;;;;5.30;5.10;;;11.20;99.90;;;;;;6271776;28;20721;-52
2022/05/06 00:39:23;;;;;;;5.60;5.27;;;11.10;99.90;;;;;;6278451;28;20241;-54
2022/05/06 00:42:26;;;;;;;5.63;5.40;;;11.10;99.90;;;;;;6280476;28;20315;-53
2022/05/06 00:45:38;;;;;;;5.67;5.37;;;11.10;99.90;;;;;;6282092;28;20233;-53
2022/05/06 00:48:46;;;;;;;5.67;5.27;;;11.00;99.90;;;;;;6267282;28;20233;-53
2022/05/06 00:52:16;;;;;;;5.73;5.43;;;11.00;99.90;;;;;;6256325;28;20245;-54
2022/05/06 00:55:18;;;;;;;5.33;5.03;;;11.00;99.90;;;;;;6255835;28;20248;-53
2022/05/06 00:58:24;;;;;;;5.63;5.20;;;10.90;99.90;;;;;;6280313;28;20237;-53
2022/05/06 01:01:29;;;;;;;5.53;5.33;;;10.90;99.90;;;;;;6282348;28;20320;-53
2022/05/06 01:04:31;;;;;;;5.93;5.60;;;10.90;99.90;;;;;;6284135;28;20758;-53
2022/05/06 01:07:37;;;;;;;5.83;5.43;;;10.80;99.90;;;;;;6280008;28;20289;-53
2022/05/06 01:10:42;;;;;;;5.50;5.30;;;10.80;99.90;;;;;;6279460;28;21033;-54
2022/05/06 01:13:47;;;;;;;5.33;5.10;;;10.70;99.90;;;;;;6279133;28;20253;-52
2022/05/06 01:16:50;;;;;;;6.07;5.60;;;10.70;99.90;;;;;;6281408;28;20472;-54
2022/05/06 01:19:53;;;;;;;5.40;5.10;;;10.70;99.90;;;;;;6281848;28;20229;-52
2022/05/06 01:22:59;;;;;;;5.57;5.37;;;10.70;99.90;;;;;;6280929;28;20524;-53
2022/05/06 01:26:02;;;;;;;6.17;5.73;;;10.60;99.90;;;;;;6271991;28;20233;-53
2022/05/06 01:29:05;;;;;;;6.10;5.70;;;10.70;99.90;;;;;;6279890;28;20335;-52
2022/05/06 01:32:08;;;;;;;6.33;5.87;;;10.60;99.90;;;;;;6284182;28;20383;-52
2022/05/06 01:35:14;;;;;;;5.40;5.20;;;10.50;99.90;;;;;;6272447;28;20558;-53
2022/05/06 01:38:24;;;;;;;6.23;5.73;;;10.50;99.90;;;;;;6286023;28;20232;-54
2022/05/06 01:41:31;;;;;;;6.27;5.97;;;10.50;99.90;;;;;;6282458;28;20525;-53
2022/05/06 01:44:38;;;;;;;6.23;5.93;;;10.40;99.90;;;;;;6286766;28;20448;-53
2022/05/06 01:47:42;;;;;;;6.40;6.10;;;10.40;99.90;;;;;;6261246;28;20375;-53
2022/05/06 01:50:48;;;;;;;6.43;6.03;;;10.40;99.90;;;;;;6260749;28;20359;-53
2022/05/06 01:53:53;;;;;;;6.10;5.80;;;10.30;99.90;;;;;;6265307;28;20233;-53
2022/05/06 01:57:00;;;;;;;5.90;5.70;;;10.30;99.90;;;;;;6255952;28;20319;-53
2022/05/06 02:00:06;;;;;;;6.50;6.10;;;10.30;99.90;;;;;;6260974;28;20737;-52
2022/05/06 02:05:16;;;;;;;6.87;6.37;;;10.20;99.90;;;;;;6262445;28;20234;-52
2022/05/06 02:06:31;;;;;;;6.70;6.30;;;10.20;99.90;;;;;;6281931;28;20302;-52
2022/05/06 02:09:35;;;;;;;6.10;5.80;;;10.20;99.90;;;;;;6281322;28;20332;-53
2022/05/06 02:12:38;;;;;;;6.57;6.27;;;10.20;99.90;;;;;;6273972;28;20225;-53
2022/05/06 02:15:42;;;;;;;5.60;5.40;;;10.20;99.90;;;;;;6285559;28;20229;-53
2022/05/06 02:18:45;;;;;;;6.37;6.07;;;10.10;99.90;;;;;;6267880;28;20242;-54
2022/05/06 02:21:58;;;;;;;5.90;5.70;;;10.10;99.90;;;;;;6259863;28;20234;-53
2022/05/06 02:25:02;;;;;;;7.03;6.73;;;10.10;99.90;;;;;;6258371;28;20570;-53
2022/05/06 02:28:07;;;;;;;7.53;7.03;;;10.10;99.90;;;;;;6258136;28;20707;-53
2022/05/06 02:34:30;;;;;;;7.77;7.27;;;10.00;99.90;;;;;;6283937;28;20234;-53
2022/05/06 02:37:33;;;;;;;7.17;6.77;;;10.00;99.90;;;;;;6282214;28;20640;-53
2022/05/06 02:40:38;;;;;;;7.37;6.87;;;10.00;99.90;;;;;;6283252;28;20736;-53
2022/05/06 02:43:41;;;;;;;7.57;7.10;;;10.00;99.90;;;;;;6269423;28;20323;-52
2022/05/06 02:46:44;;;;;;;6.10;5.90;;;10.00;99.90;;;;;;6259021;28;20334;-53
2022/05/06 02:49:47;;;;;;;6.83;6.53;;;10.00;99.90;;;;;;6258403;28;20281;-53
2022/05/06 02:52:50;;;;;;;7.40;6.93;;;10.00;99.90;;;;;;6260741;28;20248;-53
2022/05/06 02:55:54;;;;;;;7.50;7.00;;;10.00;99.90;;;;;;6257875;28;20930;-52
2022/05/06 02:58:58;;;;;;;7.67;7.23;;;10.00;99.90;;;;;;6269815;28;20582;-52
2022/05/06 03:02:01;;;;;;;7.50;7.10;;;10.00;99.90;;;;;;6284077;28;20506;-53
2022/05/06 03:05:04;;;;;;;7.17;6.63;;;10.00;99.90;;;;;;6268663;28;20836;-53
2022/05/06 03:08:07;;;;;;;7.23;6.70;;;10.00;99.90;;;;;;6264744;28;20245;-53
2022/05/06 03:11:12;;;;;;;7.30;6.80;;;10.00;99.90;;;;;;6272585;28;20329;-53
2022/05/06 03:14:14;;;;;;;7.00;6.60;;;10.00;99.90;;;;;;6282450;28;20792;-53
2022/05/06 03:17:17;;;;;;;6.93;6.57;;;9.90;99.90;;;;;;6268514;28;20265;-53
2022/05/06 03:20:20;;;;;;;7.40;7.00;;;10.00;99.90;;;;;;6259409;28;20233;-53
2022/05/06 03:23:23;;;;;;;8.00;7.50;;;9.90;99.90;;;;;;6257514;28;20809;-53
2022/05/06 03:26:27;;;;;;;7.43;7.03;;;10.00;99.90;;;;;;6256506;28;20233;-53
2022/05/06 03:29:30;;;;;;;6.70;6.37;;;9.90;99.90;;;;;;6256556;28;20817;-52
2022/05/06 03:32:37;;;;;;;7.07;6.77;;;9.90;99.90;;;;;;6244492;28;20242;-53
2022/05/06 03:35:40;;;;;;;8.03;7.47;;;9.90;99.90;;;;;;6277226;28;20333;-52
2022/05/06 03:38:44;;;;;;;7.43;7.03;;;9.90;99.90;;;;;;6304804;28;20236;-53
2022/05/06 03:41:48;;;;;;;7.07;6.70;;;9.90;99.90;;;;;;6305389;28;20232;-52
2022/05/06 03:44:50;;;;;;;8.43;7.77;;;9.90;99.90;;;;;;6291440;28;20375;-52
2022/05/06 03:47:54;;;;;;;6.73;6.43;;;9.90;99.90;;;;;;6281984;28;20229;-53
2022/05/06 03:54:18;;;;;;;7.70;7.20;;;9.90;99.90;;;;;;6283201;28;20229;-53
2022/05/06 03:57:22;;;;;;;7.13;6.73;;;9.90;99.90;;;;;;6275082;28;20247;-52
2022/05/06 04:00:26;;;;;;;6.97;6.57;;;10.00;99.90;;;;;;6276395;28;20318;-53
2022/05/06 04:03:30;;;;;;;6.90;6.60;;;10.00;99.90;;;;;;6286894;28;20262;-54
2022/05/06 04:06:33;;;;;;;7.80;7.10;;;10.00;99.90;;;;;;6291161;28;20618;-53
2022/05/06 04:09:39;;;;;;;7.27;6.77;;;10.00;99.90;;;;;;6278692;28;20269;-52
2022/05/06 04:12:43;;;;;;;9.07;8.13;;;10.00;99.90;;;;;;6278445;28;20236;-53
2022/05/06 04:15:46;;;;;;;8.43;7.70;;;10.10;99.90;;;;;;6276577;28;20746;-53
2022/05/06 04:18:49;;;;;;;8.83;8.30;;;10.10;99.90;;;;;;6281415;28;20654;-53
2022/05/06 04:25:14;;;;;;;7.43;7.00;;;10.20;99.90;;;;;;6277659;28;20242;-54
2022/05/06 04:28:18;;;;;;;8.40;7.87;;;10.20;99.90;;;;;;6276722;28;20259;-53
2022/05/06 04:31:20;;;;;;;8.20;7.60;;;10.30;99.90;;;;;;6277190;28;20399;-53
2022/05/06 04:34:24;;;;;;;8.20;7.60;;;10.40;99.90;;;;;;6274766;28;20254;-53
2022/05/06 04:37:27;;;;;;;8.87;8.07;;;10.40;99.90;;;;;;6281940;28;20268;-53
2022/05/06 04:40:30;;;;;;;9.80;8.43;;;10.50;99.90;;;;;;6311624;28;20835;-53
2022/05/06 04:43:34;;;;;;;8.90;8.10;;;10.60;99.90;;;;;;6303768;28;20236;-54
2022/05/06 04:46:37;;;;;;;8.63;8.03;;;10.60;99.90;;;;;;6301127;28;20237;-53
2022/05/06 04:49:40;;;;;;;9.13;8.40;;;10.70;99.90;;;;;;6306568;28;20235;-54
2022/05/06 04:52:44;;;;;;;11.17;9.97;;;10.70;99.90;;;;;;6306064;28;20386;-53
2022/05/06 04:55:50;;;;;;;10.07;9.23;;;10.90;99.90;;;;;;6306709;28;20390;-54
2022/05/06 04:58:54;;;;;;;10.73;9.73;;;11.00;99.90;;;;;;6305306;28;20722;-53
2022/05/06 05:01:57;;;;;;;8.43;7.83;;;11.10;99.90;;;;;;6306250;28;20300;-54
2022/05/06 05:05:00;;;;;;;9.60;8.83;;;11.40;99.90;;;;;;6305155;28;20326;-53
2022/05/06 05:08:03;;;;;;;9.20;8.40;;;11.50;99.90;;;;;;6313748;28;20653;-54
2022/05/06 05:11:05;;;;;;;9.40;8.33;;;11.70;99.90;;;;;;6301418;28;20336;-53
2022/05/06 05:14:09;;;;;;;8.70;7.90;;;12.00;99.90;;;;;;6308850;28;20434;-53
2022/05/06 05:17:12;;;;;;;8.47;7.83;;;12.20;99.90;;;;;;6281781;28;20526;-53
2022/05/06 05:20:16;;;;;;;11.10;8.87;;;12.40;99.90;;;;;;6284796;28;20669;-54
2022/05/06 05:23:25;;;;;;;13.60;9.10;;;12.70;99.90;;;;;;6293757;28;20252;-54
2022/05/06 05:26:28;;;;;;;12.00;8.87;;;12.90;99.90;;;;;;6271504;28;20497;-55
2022/05/06 05:29:33;;;;;;;10.77;8.80;;;13.00;99.90;;;;;;6283259;28;20233;-53
2022/05/06 05:32:37;;;;;;;12.40;8.60;;;13.20;99.90;;;;;;6281967;28;20324;-54
2022/05/06 05:35:40;;;;;;;9.93;8.70;;;13.50;99.90;;;;;;6283879;28;20738;-53
2022/05/06 05:38:43;;;;;;;9.60;8.50;;;13.80;99.90;;;;;;6296344;28;20740;-53
2022/05/06 05:41:45;;;;;;;8.30;7.50;;;14.10;99.90;;;;;;6289399;28;20366;-53
2022/05/06 05:48:23;;;;;;;11.17;7.73;;;14.60;99.90;;;;;;6284435;28;20239;-54
2022/05/06 05:51:25;;;;;;;8.07;7.47;;;15.00;99.90;;;;;;6284264;28;20325;-54
2022/05/06 05:54:28;;;;;;;12.70;8.87;;;15.30;99.90;;;;;;6291637;28;20241;-53
2022/05/06 05:57:31;;;;;;;9.50;8.30;;;15.40;99.90;;;;;;6284404;28;20399;-54
2022/05/06 06:00:36;;;;;;;10.93;8.17;;;15.60;99.90;;;;;;6292124;28;20487;-54
2022/05/06 06:03:38;;;;;;;15.03;8.23;;;15.70;99.90;;;;;;6283904;28;20693;-53
2022/05/06 06:06:41;;;;;;;11.97;7.97;;;15.80;99.90;;;;;;6282970;28;20252;-54
2022/05/06 06:09:44;;;;;;;8.57;7.70;;;16.00;99.90;;;;;;6298078;28;20230;-53
2022/05/06 06:12:47;;;;;;;8.83;6.33;;;16.30;99.90;;;;;;6278470;28;20722;-53
2022/05/06 06:15:51;;;;;;;7.23;6.33;;;16.40;99.90;;;;;;6281278;28;20336;-54
2022/05/06 06:18:55;;;;;;;8.43;6.47;;;16.70;99.90;;;;;;6309305;28;20244;-54
2022/05/06 06:21:58;;;;;;;6.40;5.80;;;16.90;99.90;;;;;;6309731;28;20315;-54
2022/05/06 06:25:01;;;;;;;7.40;6.43;;;17.10;99.90;;;;;;6295840;28;20780;-51
2022/05/06 06:28:04;;;;;;;11.97;6.50;;;17.10;99.90;;;;;;6309192;28;20241;-52
2022/05/06 06:31:08;;;;;;;7.63;6.03;;;17.10;99.90;;;;;;6308612;28;20771;-53
2022/05/06 06:34:10;;;;;;;12.57;6.53;;;17.00;99.90;;;;;;6302614;28;20241;-54
2022/05/06 06:37:16;;;;;;;6.43;5.73;;;17.00;99.90;;;;;;6304292;28;20245;-55
2022/05/06 06:40:19;;;;;;;7.20;6.50;;;17.20;99.90;;;;;;6307718;28;20247;-54
2022/05/06 06:43:31;;;;;;;6.53;5.63;;;17.60;99.90;;;;;;6308923;28;20387;-53
2022/05/06 06:46:35;;;;;;;7.70;7.00;;;17.80;99.90;;;;;;6309590;28;20781;-54
2022/05/06 06:49:38;;;;;;;9.97;6.70;;;18.00;99.90;;;;;;6314246;28;20244;-55
2022/05/06 06:52:41;;;;;;;10.13;7.13;;;18.30;99.90;;;;;;6307627;28;20307;-54
2022/05/06 06:55:44;;;;;;;7.83;7.10;;;18.30;99.90;;;;;;6303790;28;20489;-54
2022/05/06 06:58:46;;;;;;;9.00;7.80;;;18.40;99.90;;;;;;6316993;28;20261;-54
2022/05/06 07:02:00;;;;;;;9.67;8.77;;;18.60;99.90;;;;;;6308328;28;20425;-53
2022/05/06 07:05:04;;;;;;;11.40;9.17;;;18.60;99.90;;;;;;6283604;28;20234;-54
2022/05/06 07:15:02;;;;;;;13.80;9.40;;;18.30;99.90;;;;;;6281155;28;20333;-53
2022/05/06 07:18:07;;;;;;;9.70;8.77;;;18.20;99.90;;;;;;6285994;28;20664;-53
2022/05/06 07:21:10;;;;;;;11.23;9.60;;;18.30;99.90;;;;;;6285086;28;20240;-52
2022/05/06 07:24:12;;;;;;;10.33;9.23;;;18.10;99.90;;;;;;6272437;28;20319;-52
2022/05/06 07:27:17;;;;;;;11.30;9.13;;;17.90;99.90;;;;;;6278503;28;20793;-52
2022/05/06 07:30:20;;;;;;;12.73;8.63;;;17.70;99.90;;;;;;6291116;28;20232;-53
2022/05/06 07:33:27;;;;;;;10.90;9.03;;;17.70;99.90;;;;;;6305580;28;20233;-53
2022/05/06 07:36:30;;;;;;;9.90;9.00;;;17.80;99.90;;;;;;6280829;28;20254;-54
2022/05/06 07:39:33;;;;;;;11.87;9.53;;;17.70;99.90;;;;;;6296020;27;20328;-54
2022/05/06 07:42:36;;;;;;;10.33;9.43;;;17.60;99.90;;;;;;6277930;28;20303;-53
2022/05/06 07:45:40;;;;;;;11.00;10.00;;;17.50;99.90;;;;;;6303508;28;20282;-54
2022/05/06 07:48:44;;;;;;;9.97;9.03;;;17.40;99.90;;;;;;6308108;28;20225;-55
2022/05/06 07:51:47;;;;;;;10.93;9.80;;;17.40;99.90;;;;;;6307481;28;20463;-54
2022/05/06 07:54:50;;;;;;;10.40;9.40;;;17.50;99.90;;;;;;6303483;28;20338;-54
2022/05/06 07:57:53;;;;;;;13.60;9.50;;;17.40;99.90;;;;;;6308474;28;20237;-54
2022/05/06 08:00:56;;;;;;;9.90;9.00;;;17.50;99.90;;;;;;6307462;28;20276;-53
2022/05/06 08:07:25;;;;;;;13.43;9.57;;;17.60;99.90;;;;;;6282356;28;20508;-54
2022/05/06 08:10:28;;;;;;;10.17;9.17;;;17.60;99.90;;;;;;6283585;28;20235;-54
2022/05/06 08:13:30;;;;;;;12.87;10.27;;;17.60;99.90;;;;;;6278443;28;20626;-54
2022/05/06 08:16:33;;;;;;;9.97;8.97;;;17.30;99.90;;;;;;6282154;28;20746;-54
2022/05/06 08:19:49;;;;;;;11.13;9.40;;;17.40;99.90;;;;;;6281088;28;20714;-54
2022/05/06 08:22:52;;;;;;;10.07;9.07;;;17.40;99.90;;;;;;6290002;28;20706;-54
2022/05/06 08:25:56;;;;;;;10.80;8.93;;;17.40;99.90;;;;;;6288011;28;20257;-54
2022/05/06 08:28:59;;;;;;;9.77;8.87;;;17.50;99.90;;;;;;6285033;28;20501;-53
2022/05/06 08:32:03;;;;;;;10.73;9.17;;;17.60;99.90;;;;;;6282561;28;20248;-54
2022/05/06 08:35:09;;;;;;;9.37;8.43;;;17.70;99.90;;;;;;6280263;28;20318;-54
2022/05/06 08:38:14;;;;;;;10.23;9.00;;;17.80;99.90;;;;;;6280959;28;20775;-54
2022/05/06 08:41:17;;;;;;;9.80;8.80;;;17.80;99.90;;;;;;6279249;28;20237;-54
2022/05/06 08:51:03;;;;;;;11.10;8.97;;;18.20;99.90;;;;;;6287716;28;20371;-54
2022/05/06 08:54:06;;;;;;;9.90;8.00;;;18.40;99.90;;;;;;6279927;28;20267;-53
2022/05/06 08:57:09;;;;;;;9.07;8.27;;;18.70;99.90;;;;;;6273223;28;20800;-55
2022/05/06 09:00:13;;;;;;;8.97;7.60;;;18.50;99.90;;;;;;6281074;28;20624;-53
2022/05/06 09:03:17;;;;;;;9.27;8.33;;;18.60;99.90;;;;;;6282127;28;20268;-54
2022/05/06 09:06:23;;;;;;;9.20;8.37;;;18.60;99.90;;;;;;6273362;28;20620;-54
2022/05/06 09:09:26;;;;;;;9.40;8.03;;;18.50;99.90;;;;;;6278856;28;20636;-53
2022/05/06 09:12:45;;;;;;;8.13;6.77;;;18.80;99.90;;;;;;6265149;28;20244;-53
2022/05/06 09:19:21;;;;;;;8.43;7.70;;;18.80;99.90;;;;;;6252765;28;20253;-57
2022/05/06 09:22:28;;;;;;;9.20;8.10;;;18.90;99.90;;;;;;6276557;28;20232;-54
2022/05/06 09:25:39;;;;;;;8.27;7.10;;;19.00;99.90;;;;;;6305040;28;20300;-54
2022/05/06 09:28:41;;;;;;;6.40;5.90;;;19.10;99.90;;;;;;6282869;28;20605;-54
2022/05/06 09:31:44;;;;;;;7.63;6.77;;;18.80;99.90;;;;;;6279824;28;20251;-54
2022/05/06 09:34:49;;;;;;;8.03;7.23;;;18.70;99.90;;;;;;6284772;28;20229;-53
2022/05/06 09:37:53;;;;;;;7.90;7.10;;;18.60;99.90;;;;;;6286095;28;20336;-54
2022/05/06 09:40:57;;;;;;;6.93;6.33;;;18.70;99.90;;;;;;6281755;28;20866;-54
2022/05/06 09:44:01;;;;;;;9.13;6.70;;;19.00;99.90;;;;;;6277669;28;20241;-53
2022/05/06 09:47:11;;;;;;;8.87;6.03;;;19.20;99.90;;;;;;6280769;28;20237;-53
2022/05/06 09:50:14;;;;;;;8.40;6.87;;;19.50;99.90;;;;;;6291801;28;20816;-52
2022/05/06 09:53:19;;;;;;;8.13;6.97;;;19.50;99.90;;;;;;6302990;28;20237;-53
2022/05/06 09:56:24;;;;;;;9.63;7.33;;;19.40;99.90;;;;;;6306748;28;20475;-53
2022/05/06 09:59:28;;;;;;;8.03;6.90;;;19.30;99.90;;;;;;6305408;28;20331;-53
2022/05/06 10:02:30;;;;;;;8.07;6.63;;;19.40;99.90;;;;;;6309517;28;20229;-54
2022/05/06 10:05:35;;;;;;;7.23;6.63;;;19.30;99.90;;;;;;6290010;28;20455;-54
2022/05/06 10:08:45;;;;;;;6.77;6.27;;;19.30;99.90;;;;;;6288086;28;20904;-53
2022/05/06 10:11:51;;;;;;;8.37;5.97;;;19.20;99.90;;;;;;6295623;27;20342;-54
2022/05/06 10:14:56;;;;;;;6.67;5.23;;;19.10;99.90;;;;;;6284808;28;20260;-53
2022/05/06 10:18:02;;;;;;;6.33;5.80;;;19.10;99.90;;;;;;6284579;28;20244;-53
2022/05/06 10:21:05;;;;;;;5.53;4.93;;;19.20;99.90;;;;;;6284064;28;20248;-53
2022/05/06 10:24:16;;;;;;;6.50;5.97;;;19.30;99.90;;;;;;6285215;28;20793;-55
2022/05/06 10:32:25;;;;;;;5.37;4.93;;;19.60;99.90;;;;;;6279235;28;20603;-53
2022/05/06 10:34:08;;;;;;;5.33;4.90;;;19.80;99.90;;;;;;6282893;28;20363;-54
2022/05/06 10:37:16;;;;;;;5.37;4.97;;;19.90;99.90;;;;;;6282039;28;20428;-55
2022/05/06 10:40:32;;;;;;;4.90;4.60;;;19.90;99.90;;;;;;6282585;28;20298;-55
2022/05/06 10:43:54;;;;;;;5.67;5.17;;;19.80;99.90;;;;;;6276558;28;20230;-55
2022/05/06 10:46:57;;;;;;;5.47;4.50;;;19.50;99.90;;;;;;6281065;28;20243;-54
2022/05/06 10:50:13;;;;;;;5.10;4.70;;;19.10;99.90;;;;;;6283788;28;20362;-55
2022/05/06 10:53:34;;;;;;;6.10;4.40;;;19.30;99.90;;;;;;6279883;28;20259;-55
2022/05/06 10:56:44;;;;;;;4.03;3.73;;;19.60;99.90;;;;;;6281142;28;20234;-55
2022/05/06 10:59:48;;;;;;;5.83;4.40;;;19.80;99.90;;;;;;6284801;28;20235;-54
2022/05/06 11:02:51;;;;;;;4.10;3.90;;;19.80;99.90;;;;;;6283219;28;20757;-55
2022/05/06 11:05:54;;;;;;;3.23;3.00;;;19.70;99.90;;;;;;6296406;28;20551;-53
2022/05/06 11:08:57;;;;;;;3.23;3.00;;;19.80;99.90;;;;;;6306475;28;20263;-53
2022/05/06 11:12:01;;;;;;;3.63;3.40;;;19.90;99.90;;;;;;6304768;28;20247;-54
2022/05/06 11:15:05;;;;;;;4.00;3.70;;;20.00;99.90;;;;;;6305494;28;20772;-54
2022/05/06 11:18:08;;;;;;;3.60;3.37;;;20.10;99.90;;;;;;6310040;28;20255;-53
2022/05/06 11:21:22;;;;;;;3.33;3.13;;;20.20;99.90;;;;;;6311635;28;20244;-53
2022/05/06 11:24:24;;;;;;;4.20;3.90;;;20.40;99.90;;;;;;6300238;28;20248;-54
2022/05/06 11:27:28;;;;;;;4.60;4.30;;;20.50;99.90;;;;;;6312123;28;20240;-52
2022/05/06 11:30:32;;;;;;;5.60;4.17;;;20.60;99.90;;;;;;6283097;28;20261;-54
2022/05/06 11:33:37;;;;;;;4.53;4.23;;;20.80;99.90;;;;;;6301585;28;20266;-49
2022/05/06 11:36:47;;;;;;;5.13;3.63;;;20.90;99.90;;;;;;6304076;28;22816;-54
2022/05/06 11:39:50;;;;;;;4.03;3.60;;;20.80;99.90;;;;;;6305260;28;20276;-54
2022/05/06 11:42:54;;;;;;;4.47;4.17;;;20.50;99.90;;;;;;6307035;28;20224;-54
2022/05/06 11:49:23;;;;;;;3.33;3.23;;;20.70;99.90;;;;;;6261137;28;20241;-54
2022/05/06 11:52:26;;;;;;;4.33;3.97;;;21.10;99.90;;;;;;6281865;28;20315;-54
2022/05/06 11:55:30;;;;;;;3.37;3.00;;;21.50;99.90;;;;;;6299392;28;20379;-54
2022/05/06 11:58:34;;;;;;;3.97;3.53;;;21.70;99.90;;;;;;6299869;28;20239;-54
2022/05/06 12:01:41;;;;;;;3.70;3.43;;;21.70;99.90;;;;;;6304816;28;20240;-54
2022/05/06 12:04:44;;;;;;;3.87;3.57;;;21.60;99.30;;;;;;6306867;28;20415;-53
2022/05/06 12:07:49;;;;;;;3.47;3.17;;;21.30;99.70;;;;;;6288239;28;20248;-54
2022/05/06 12:10:58;;;;;;;4.50;3.20;;;21.00;99.90;;;;;;6279266;28;20363;-55
2022/05/06 12:14:07;;;;;;;3.87;3.50;;;20.90;99.90;;;;;;6293281;28;20249;-54
2022/05/06 12:17:13;;;;;;;5.50;4.00;;;20.80;99.90;;;;;;6272171;28;20557;-54
2022/05/06 12:20:33;;;;;;;3.37;3.17;;;20.80;99.90;;;;;;6282010;28;20249;-54
2022/05/06 12:23:35;;;;;;;3.90;3.60;;;20.60;99.90;;;;;;6281338;28;20240;-53
2022/05/06 12:26:39;;;;;;;3.27;3.10;;;20.50;99.90;;;;;;6286548;28;20717;-53
2022/05/06 12:29:46;;;;;;;3.90;3.70;;;20.40;99.90;;;;;;6285032;28;20248;-53
2022/05/06 12:33:02;;;;;;;3.37;3.17;;;20.40;99.90;;;;;;6305339;28;20372;-54
2022/05/06 12:36:08;;;;;;;3.90;3.70;;;20.40;99.90;;;;;;6303460;28;20614;-53
2022/05/06 12:39:22;;;;;;;3.67;3.47;;;20.50;99.90;;;;;;6306897;28;20249;-53
2022/05/06 12:42:24;;;;;;;3.87;3.63;;;20.60;99.90;;;;;;6291170;28;20328;-54
2022/05/06 12:45:56;;;;;;;3.63;3.43;;;20.60;99.90;;;;;;6289868;28;20241;-53
2022/05/06 12:52:20;;;;;;;3.90;3.60;;;20.50;99.90;;;;;;6303139;28;20444;-54
2022/05/06 12:55:23;;;;;;;2.77;2.63;;;20.60;99.90;;;;;;6296543;28;20293;-53
2022/05/06 12:58:27;;;;;;;3.23;3.03;;;20.60;99.90;;;;;;6310510;28;20232;-53
2022/05/06 13:01:32;;;;;;;4.13;3.23;;;20.70;99.90;;;;;;6308837;28;20235;-53
2022/05/06 13:04:36;;;;;;;3.40;3.20;;;20.80;99.90;;;;;;6310061;28;20578;-54
2022/05/06 13:07:38;;;;;;;4.03;3.00;;;20.90;99.90;;;;;;6298934;28;20305;-54
2022/05/06 13:10:41;;;;;;;3.87;3.10;;;20.80;99.90;;;;;;6309574;28;20401;-54
2022/05/06 13:13:49;;;;;;;2.63;2.53;;;20.80;99.90;;;;;;6278779;28;20244;-54
2022/05/06 13:16:53;;;;;;;2.80;2.70;;;20.70;99.90;;;;;;6280216;28;20231;-54
2022/05/06 13:19:57;;;;;;;2.60;2.30;;;20.70;97.40;;;;;;6290094;28;20339;-52
2022/05/06 13:23:01;;;;;;;2.50;2.30;;;20.50;94.10;;;;;;6304795;28;20302;-55
2022/05/06 13:26:06;;;;;;;2.07;2.00;;;20.40;95.00;;;;;;6310948;28;20407;-53
2022/05/06 13:29:09;;;;;;;2.57;2.40;;;20.40;95.60;;;;;;6308367;28;20532;-54
2022/05/06 13:32:13;;;;;;;2.57;2.47;;;20.40;95.00;;;;;;6308725;28;20520;-53
2022/05/06 13:35:16;;;;;;;2.33;2.30;;;20.60;96.50;;;;;;6308369;28;20240;-57
2022/05/06 13:38:19;;;;;;;2.97;2.27;;;20.70;94.60;;;;;;6308413;28;20315;-53
2022/05/06 13:41:23;;;;;;;2.50;2.30;;;20.90;93.70;;;;;;6303867;28;20676;-53
2022/05/06 13:44:26;;;;;;;2.33;2.10;;;20.90;93.30;;;;;;6309379;28;20315;-53
2022/05/06 13:47:31;;;;;;;2.27;2.17;;;20.90;95.50;;;;;;6309377;28;20237;-54
2022/05/06 13:50:33;;;;;;;2.30;2.20;;;20.70;94.30;;;;;;6305652;28;20775;-53
2022/05/06 13:53:36;;;;;;;4.83;2.30;;;21.10;94.20;;;;;;6307623;28;20315;-53
2022/05/06 13:59:59;;;;;;;1.93;1.87;;;21.00;92.90;;;;;;6300701;28;20255;-54
2022/05/06 14:03:03;;;;;;;2.30;2.10;;;21.00;93.40;;;;;;6311542;28;20705;-53
2022/05/06 14:06:06;;;;;;;2.17;1.87;;;21.10;92.30;;;;;;6313498;27;20241;-53
2022/05/06 14:09:09;;;;;;;3.40;3.20;;;21.20;90.80;;;;;;6307314;28;20570;-54
2022/05/06 14:12:12;;;;;;;2.60;2.60;;;21.40;90.40;;;;;;6304860;28;20735;-54
2022/05/06 14:15:15;;;;;;;5.53;3.30;;;21.60;90.30;;;;;;6316633;28;20648;-53
2022/05/06 14:18:19;;;;;;;2.67;2.43;;;21.70;90.90;;;;;;6308463;28;20241;-54
2022/05/06 14:21:23;;;;;;;3.53;2.23;;;21.90;90.00;;;;;;6307122;28;20239;-53
2022/05/06 14:24:26;;;;;;;3.80;2.30;;;21.70;88.50;;;;;;6310781;28;20250;-53
2022/05/06 14:27:28;;;;;;;3.60;2.50;;;21.70;89.40;;;;;;6300605;28;20245;-53
2022/05/06 14:30:32;;;;;;;2.53;2.33;;;21.80;89.30;;;;;;6308148;28;20713;-54
2022/05/06 14:33:36;;;;;;;2.13;2.13;;;21.80;89.20;;;;;;6313417;28;20451;-52
2022/05/06 14:36:39;;;;;;;2.60;2.40;;;21.80;90.50;;;;;;6303278;28;20233;-53
2022/05/06 14:39:41;;;;;;;2.30;2.30;;;21.60;89.70;;;;;;6309817;28;20387;-54
2022/05/06 14:42:45;;;;;;;3.87;2.20;;;21.60;90.60;;;;;;6305144;28;20256;-54
2022/05/06 14:45:49;;;;;;;1.97;1.97;;;21.50;91.40;;;;;;6296351;28;20260;-53
2022/05/06 14:48:54;;;;;;;1.90;1.90;;;21.50;88.80;;;;;;6307132;28;20358;-53
2022/05/06 14:51:58;;;;;;;3.33;2.70;;;21.60;88.20;;;;;;6300816;28;20224;-54
2022/05/06 14:55:03;;;;;;;2.47;2.33;;;21.70;87.40;;;;;;6306745;28;20369;-54
2022/05/06 14:58:07;;;;;;;2.70;2.67;;;21.60;86.90;;;;;;6305684;28;20237;-52
2022/05/06 15:01:10;;;;;;;2.47;2.37;;;21.60;86.70;;;;;;6304492;28;20292;-55
2022/05/06 15:04:16;;;;;;;2.17;2.07;;;21.50;89.60;;;;;;6308738;28;20228;-54
2022/05/06 15:07:19;;;;;;;1.93;1.87;;;21.60;83.40;;;;;;6303031;28;20427;-55
2022/05/06 15:10:21;;;;;;;1.63;1.57;;;21.70;83.50;;;;;;6303775;28;20313;-54
2022/05/06 15:13:28;;;;;;;2.80;1.90;;;22.00;83.70;;;;;;6301110;28;20268;-53
2022/05/06 15:16:31;;;;;;;2.20;2.10;;;22.00;83.70;;;;;;6303285;28;20711;-54
2022/05/06 15:19:35;;;;;;;2.30;2.20;;;21.90;83.60;;;;;;6302951;28;20705;-54
2022/05/06 15:22:38;;;;;;;3.23;2.50;;;21.90;83.70;;;;;;6307987;28;20793;-55
2022/05/06 15:25:41;;;;;;;2.93;2.70;;;21.90;84.00;;;;;;6305726;28;20240;-55
2022/05/06 15:28:44;;;;;;;2.40;2.30;;;22.00;86.40;;;;;;6309471;28;20229;-53
2022/05/06 15:31:47;;;;;;;3.33;2.47;;;22.20;83.90;;;;;;6288481;28;20286;-54
2022/05/06 15:34:52;;;;;;;2.30;2.27;;;22.20;84.00;;;;;;6281660;28;20268;-54
2022/05/06 15:37:55;;;;;;;2.60;2.40;;;22.10;84.00;;;;;;6276731;28;20237;-54
2022/05/06 15:40:58;;;;;;;2.03;2.00;;;22.00;86.00;;;;;;6280528;28;20237;-54
2022/05/06 15:44:00;;;;;;;2.60;2.30;;;22.10;88.10;;;;;;6282357;28;20379;-54
2022/05/06 15:47:06;;;;;;;1.83;1.83;;;22.10;83.90;;;;;;6269234;28;20332;-53
2022/05/06 15:50:11;;;;;;;2.60;2.50;;;22.30;84.00;;;;;;6306277;28;20732;-54
2022/05/06 15:53:14;;;;;;;3.20;2.60;;;22.40;84.00;;;;;;6307730;28;20702;-53
2022/05/06 15:56:16;;;;;;;3.63;2.60;;;22.40;84.10;;;;;;6302594;28;20249;-54
2022/05/06 15:59:19;;;;;;;2.20;2.20;;;22.60;84.30;;;;;;6311943;28;20289;-54
2022/05/06 16:02:22;;;;;;;2.33;2.27;;;22.50;84.20;;;;;;6299293;28;20720;-55
2022/05/06 16:05:27;;;;;;;7.53;2.40;;;22.40;84.10;;;;;;6299229;28;20722;-55
2022/05/06 16:08:30;;;;;;;2.43;2.43;;;22.30;84.00;;;;;;6302389;28;20233;-53
2022/05/06 16:11:33;;;;;;;2.90;2.70;;;22.30;84.10;;;;;;6304829;28;20288;-53
2022/05/06 16:17:58;;;;;;;3.00;2.53;;;22.10;86.10;;;;;;6303413;28;20728;-53
2022/05/06 16:21:09;;;;;;;2.60;2.60;;;22.00;88.10;;;;;;6307412;28;20336;-53
2022/05/06 16:24:11;;;;;;;3.00;2.80;;;21.90;89.20;;;;;;6310013;28;20236;-53
2022/05/06 16:27:15;;;;;;;2.83;2.73;;;21.80;90.10;;;;;;6298398;28;20516;-54
2022/05/06 16:30:19;;;;;;;2.90;2.80;;;21.60;90.20;;;;;;6306383;28;20259;-53
2022/05/06 16:33:21;;;;;;;4.63;3.07;;;21.60;90.80;;;;;;6307717;28;20241;-52
2022/05/06 16:39:46;;;;;;;4.13;2.73;;;21.60;91.20;;;;;;6282546;28;20226;-54
2022/05/06 16:42:48;;;;;;;3.03;2.93;;;21.50;91.50;;;;;;6291426;28;20258;-54
2022/05/06 16:45:51;;;;;;;2.50;2.40;;;21.20;92.80;;;;;;6281996;28;20725;-53
2022/05/06 16:48:55;;;;;;;2.63;2.50;;;21.10;93.20;;;;;;6281393;28;20755;-54
2022/05/06 16:51:59;;;;;;;5.17;2.47;;;21.00;93.50;;;;;;6275514;28;20266;-54
2022/05/06 16:55:02;;;;;;;2.80;2.73;;;20.90;94.50;;;;;;6303811;27;20290;-54